Forside
METAR-TAF:

METAR-TAF

Lufthavne :

Phillip Goldston

Belize City, Belize

Breddekreds: 17-32N, længdekreds: 088-18W, højde: 5 m

Aktuelle vejr

Denne rapport blev lavet for 7 timer og 50 minutter siden, kl. 00:00 UTC
Vind 3 kt fra nord
Temperatur 28°C
Fugtighed 84%
Tryk 1010 hPa
Sigt 10 km eller mere
Nogle få skyer i en højde af 2000 ft

METAR: MZBZ 190000Z 35003KT 9999 FEW020 28/25 A2982 Q1010 NOSIG

Tid: 01:50 (07:50 UTC)

Vejrudsigter

Denne rapport blev lavet for 4 timer og 50 minutter siden, kl. 03:00 UTC
Foreløbig gælder fra 19 på 06 UTC til 20 på 06 UTC
Vind 5 kt fra nordvest
Sigt 10 km eller mere
Spredte skyer i en højde af 2300 ft
Sandsynlighed 30% :
Midlertidig
fra 19 på 06 UTC til 19 på 12 UTC
Sigt: 5000 m
Brudte skyer i en højde af 1500 ft
regnbyger
ændring
fra 19 på 16 UTC til 19 på 18 UTC
Vind 10 kt fra østnordøst

TAF: MZBZ 190300Z 1906/2006 32005KT 9999 SCT023 PROB30 TEMPO 1906/1912 5000 SHRA BKN015 BECMG 1916/1918 07010KT

Vejrobservationer og prognoser fra mere end 4000 lufthavne (METAR og TAF).

De gule og røde prikker repræsenterer de meteorologiske stationer.

Flyt musen over at se navnet på stationen.

Så klik over at se vejr observationer og prognoser.

At skifte det kort: Klik på de grønne knapper med et sort kors for at zoome ind; på den grønne knap med en bindestreg for at zoome ud; eller på de grønne pile for tilstødende kort.


METAR-TAF: